sensor_id;sensor_type;location;lat;lon;timestamp;temperature;humidity
39777;DHT22;25453;48.162;14.510;2023-10-08T00:02:05;18.70;47.20
39777;DHT22;25453;48.162;14.510;2023-10-08T00:04:32;18.70;47.20
39777;DHT22;25453;48.162;14.510;2023-10-08T00:07:05;18.70;47.20
39777;DHT22;25453;48.162;14.510;2023-10-08T00:09:35;18.70;47.10
39777;DHT22;25453;48.162;14.510;2023-10-08T00:12:03;18.70;47.00
39777;DHT22;25453;48.162;14.510;2023-10-08T00:14:31;18.70;47.00
39777;DHT22;25453;48.162;14.510;2023-10-08T00:17:13;18.70;46.90
39777;DHT22;25453;48.162;14.510;2023-10-08T00:19:40;18.70;46.70
39777;DHT22;25453;48.162;14.510;2023-10-08T00:22:12;18.80;46.40
39777;DHT22;25453;48.162;14.510;2023-10-08T00:24:40;18.80;46.30
39777;DHT22;25453;48.162;14.510;2023-10-08T00:27:08;18.80;46.00
39777;DHT22;25453;48.162;14.510;2023-10-08T00:29:35;18.80;45.90
39777;DHT22;25453;48.162;14.510;2023-10-08T00:32:07;18.80;45.80
39777;DHT22;25453;48.162;14.510;2023-10-08T00:34:39;18.80;45.60
39777;DHT22;25453;48.162;14.510;2023-10-08T00:37:09;18.80;45.40
39777;DHT22;25453;48.162;14.510;2023-10-08T00:39:37;18.90;45.30
39777;DHT22;25453;48.162;14.510;2023-10-08T00:42:06;18.90;45.10
39777;DHT22;25453;48.162;14.510;2023-10-08T00:44:35;18.90;45.00
39777;DHT22;25453;48.162;14.510;2023-10-08T00:47:05;18.90;44.90
39777;DHT22;25453;48.162;14.510;2023-10-08T00:49:33;18.90;44.80
39777;DHT22;25453;48.162;14.510;2023-10-08T00:52:10;19.00;44.80
39777;DHT22;25453;48.162;14.510;2023-10-08T00:54:38;19.00;44.70
39777;DHT22;25453;48.162;14.510;2023-10-08T00:57:27;19.00;44.60
39777;DHT22;25453;48.162;14.510;2023-10-08T00:59:57;19.00;44.60
39777;DHT22;25453;48.162;14.510;2023-10-08T01:02:30;19.00;44.50
39777;DHT22;25453;48.162;14.510;2023-10-08T01:05:16;19.00;44.50
39777;DHT22;25453;48.162;14.510;2023-10-08T01:07:52;19.00;44.40
39777;DHT22;25453;48.162;14.510;2023-10-08T01:10:22;19.10;44.30
39777;DHT22;25453;48.162;14.510;2023-10-08T01:12:51;19.10;44.30
39777;DHT22;25453;48.162;14.510;2023-10-08T01:15:31;19.10;44.30
39777;DHT22;25453;48.162;14.510;2023-10-08T01:18:03;19.10;44.30
39777;DHT22;25453;48.162;14.510;2023-10-08T01:20:41;19.10;44.30
39777;DHT22;25453;48.162;14.510;2023-10-08T01:23:15;19.10;44.30
39777;DHT22;25453;48.162;14.510;2023-10-08T01:25:49;19.10;44.20
39777;DHT22;25453;48.162;14.510;2023-10-08T01:28:43;19.10;44.20
39777;DHT22;25453;48.162;14.510;2023-10-08T01:31:10;19.20;44.20
39777;DHT22;25453;48.162;14.510;2023-10-08T01:33:39;19.20;44.10
39777;DHT22;25453;48.162;14.510;2023-10-08T01:36:14;19.20;44.10
39777;DHT22;25453;48.162;14.510;2023-10-08T01:38:41;19.20;44.10
39777;DHT22;25453;48.162;14.510;2023-10-08T01:41:16;19.20;44.10
39777;DHT22;25453;48.162;14.510;2023-10-08T01:43:46;19.20;44.10
39777;DHT22;25453;48.162;14.510;2023-10-08T01:46:13;19.20;44.20
39777;DHT22;25453;48.162;14.510;2023-10-08T01:48:42;19.20;44.20
39777;DHT22;25453;48.162;14.510;2023-10-08T01:51:12;19.20;44.30
39777;DHT22;25453;48.162;14.510;2023-10-08T01:53:53;19.30;44.30
39777;DHT22;25453;48.162;14.510;2023-10-08T01:56:21;19.30;44.30
39777;DHT22;25453;48.162;14.510;2023-10-08T01:58:48;19.30;44.30
39777;DHT22;25453;48.162;14.510;2023-10-08T02:01:19;19.30;44.30
39777;DHT22;25453;48.162;14.510;2023-10-08T02:03:46;19.30;44.30
39777;DHT22;25453;48.162;14.510;2023-10-08T02:06:13;19.30;44.40
39777;DHT22;25453;48.162;14.510;2023-10-08T02:08:40;19.30;44.40
39777;DHT22;25453;48.162;14.510;2023-10-08T02:11:08;19.40;44.40
39777;DHT22;25453;48.162;14.510;2023-10-08T02:13:35;19.40;44.40
39777;DHT22;25453;48.162;14.510;2023-10-08T02:16:03;19.40;44.50
39777;DHT22;25453;48.162;14.510;2023-10-08T02:18:30;19.40;44.50
39777;DHT22;25453;48.162;14.510;2023-10-08T02:20:58;19.40;44.60
39777;DHT22;25453;48.162;14.510;2023-10-08T02:23:25;19.40;44.70
39777;DHT22;25453;48.162;14.510;2023-10-08T02:25:52;19.40;44.80
39777;DHT22;25453;48.162;14.510;2023-10-08T02:28:21;19.40;44.80
39777;DHT22;25453;48.162;14.510;2023-10-08T02:30:51;19.40;44.90
39777;DHT22;25453;48.162;14.510;2023-10-08T02:33:18;19.40;45.00
39777;DHT22;25453;48.162;14.510;2023-10-08T02:35:47;19.40;45.10
39777;DHT22;25453;48.162;14.510;2023-10-08T02:38:15;19.40;45.20
39777;DHT22;25453;48.162;14.510;2023-10-08T02:40:48;19.40;45.20
39777;DHT22;25453;48.162;14.510;2023-10-08T02:43:15;19.40;45.30
39777;DHT22;25453;48.162;14.510;2023-10-08T02:45:43;19.40;45.30
39777;DHT22;25453;48.162;14.510;2023-10-08T02:48:15;19.40;45.40
39777;DHT22;25453;48.162;14.510;2023-10-08T02:50:43;19.40;45.50
39777;DHT22;25453;48.162;14.510;2023-10-08T02:53:13;19.40;45.50
39777;DHT22;25453;48.162;14.510;2023-10-08T02:55:47;19.40;45.60
39777;DHT22;25453;48.162;14.510;2023-10-08T02:58:15;19.40;45.70
39777;DHT22;25453;48.162;14.510;2023-10-08T03:00:42;19.40;45.70
39777;DHT22;25453;48.162;14.510;2023-10-08T03:03:10;19.40;45.80
39777;DHT22;25453;48.162;14.510;2023-10-08T03:05:43;19.40;45.80
39777;DHT22;25453;48.162;14.510;2023-10-08T03:08:13;19.40;45.80
39777;DHT22;25453;48.162;14.510;2023-10-08T03:10:48;19.40;45.90
39777;DHT22;25453;48.162;14.510;2023-10-08T03:13:29;19.30;45.90
39777;DHT22;25453;48.162;14.510;2023-10-08T03:15:56;19.30;45.90
39777;DHT22;25453;48.162;14.510;2023-10-08T03:18:30;19.30;46.00
39777;DHT22;25453;48.162;14.510;2023-10-08T03:21:04;19.30;46.10
39777;DHT22;25453;48.162;14.510;2023-10-08T03:23:32;19.30;46.10
39777;DHT22;25453;48.162;14.510;2023-10-08T03:26:03;19.30;46.10
39777;DHT22;25453;48.162;14.510;2023-10-08T03:29:03;19.30;46.10
39777;DHT22;25453;48.162;14.510;2023-10-08T03:31:42;19.30;46.10
39777;DHT22;25453;48.162;14.510;2023-10-08T03:34:15;19.30;46.10
39777;DHT22;25453;48.162;14.510;2023-10-08T03:36:45;19.30;46.10
39777;DHT22;25453;48.162;14.510;2023-10-08T03:39:13;19.30;46.10
39777;DHT22;25453;48.162;14.510;2023-10-08T03:41:41;19.30;46.10
39777;DHT22;25453;48.162;14.510;2023-10-08T03:44:08;19.30;46.10
39777;DHT22;25453;48.162;14.510;2023-10-08T03:46:43;19.30;46.20
39777;DHT22;25453;48.162;14.510;2023-10-08T03:49:13;19.30;46.10
39777;DHT22;25453;48.162;14.510;2023-10-08T03:51:50;19.30;46.10
39777;DHT22;25453;48.162;14.510;2023-10-08T03:54:19;19.30;46.20
39777;DHT22;25453;48.162;14.510;2023-10-08T03:56:52;19.30;46.20
39777;DHT22;25453;48.162;14.510;2023-10-08T03:59:19;19.30;46.20
39777;DHT22;25453;48.162;14.510;2023-10-08T04:01:59;19.30;46.20
39777;DHT22;25453;48.162;14.510;2023-10-08T04:04:36;19.30;46.20
39777;DHT22;25453;48.162;14.510;2023-10-08T04:07:21;19.30;46.30
39777;DHT22;25453;48.162;14.510;2023-10-08T04:09:56;19.30;46.40
39777;DHT22;25453;48.162;14.510;2023-10-08T04:12:37;19.30;46.50
39777;DHT22;25453;48.162;14.510;2023-10-08T04:15:11;19.20;46.60
39777;DHT22;25453;48.162;14.510;2023-10-08T04:17:44;19.20;46.80
39777;DHT22;25453;48.162;14.510;2023-10-08T04:20:11;19.20;46.90
39777;DHT22;25453;48.162;14.510;2023-10-08T04:22:58;19.20;46.90
39777;DHT22;25453;48.162;14.510;2023-10-08T04:25:26;19.10;47.10
39777;DHT22;25453;48.162;14.510;2023-10-08T04:27:55;19.10;47.20
39777;DHT22;25453;48.162;14.510;2023-10-08T04:30:34;19.10;47.30
39777;DHT22;25453;48.162;14.510;2023-10-08T04:33:03;19.10;47.40
39777;DHT22;25453;48.162;14.510;2023-10-08T04:35:43;19.10;47.40
39777;DHT22;25453;48.162;14.510;2023-10-08T04:38:37;19.10;47.40
39777;DHT22;25453;48.162;14.510;2023-10-08T04:41:07;19.10;47.40
39777;DHT22;25453;48.162;14.510;2023-10-08T04:43:37;19.10;47.40
39777;DHT22;25453;48.162;14.510;2023-10-08T04:46:05;19.10;47.40
39777;DHT22;25453;48.162;14.510;2023-10-08T04:48:52;19.10;47.40
39777;DHT22;25453;48.162;14.510;2023-10-08T04:51:19;19.10;47.40
39777;DHT22;25453;48.162;14.510;2023-10-08T04:53:49;19.10;47.40
39777;DHT22;25453;48.162;14.510;2023-10-08T04:56:16;19.10;47.40
39777;DHT22;25453;48.162;14.510;2023-10-08T04:58:44;19.10;47.30
39777;DHT22;25453;48.162;14.510;2023-10-08T05:01:16;19.10;47.30
39777;DHT22;25453;48.162;14.510;2023-10-08T05:04:05;19.10;47.30
39777;DHT22;25453;48.162;14.510;2023-10-08T05:06:33;19.10;47.30
39777;DHT22;25453;48.162;14.510;2023-10-08T05:09:03;19.10;47.30
39777;DHT22;25453;48.162;14.510;2023-10-08T05:11:46;19.10;47.40
39777;DHT22;25453;48.162;14.510;2023-10-08T05:14:24;19.00;47.40
39777;DHT22;25453;48.162;14.510;2023-10-08T05:17:01;19.00;47.50
39777;DHT22;25453;48.162;14.510;2023-10-08T05:19:40;19.00;47.50
39777;DHT22;25453;48.162;14.510;2023-10-08T05:22:08;19.00;47.60
39777;DHT22;25453;48.162;14.510;2023-10-08T05:24:47;19.00;47.60
39777;DHT22;25453;48.162;14.510;2023-10-08T05:27:36;19.00;47.60
39777;DHT22;25453;48.162;14.510;2023-10-08T05:30:16;19.00;47.60
39777;DHT22;25453;48.162;14.510;2023-10-08T05:32:52;19.00;47.70
39777;DHT22;25453;48.162;14.510;2023-10-08T05:35:39;19.00;47.70
39777;DHT22;25453;48.162;14.510;2023-10-08T05:38:10;19.00;47.80
39777;DHT22;25453;48.162;14.510;2023-10-08T05:40:49;19.00;47.80
39777;DHT22;25453;48.162;14.510;2023-10-08T05:43:32;19.00;47.80
39777;DHT22;25453;48.162;14.510;2023-10-08T05:46:08;19.00;47.90
39777;DHT22;25453;48.162;14.510;2023-10-08T05:51:34;19.00;48.00
39777;DHT22;25453;48.162;14.510;2023-10-08T05:54:14;19.00;48.10
39777;DHT22;25453;48.162;14.510;2023-10-08T05:56:55;19.10;48.10
39777;DHT22;25453;48.162;14.510;2023-10-08T05:59:51;19.10;48.20
39777;DHT22;25453;48.162;14.510;2023-10-08T06:02:26;19.00;48.20
39777;DHT22;25453;48.162;14.510;2023-10-08T06:04:57;19.00;48.30
39777;DHT22;25453;48.162;14.510;2023-10-08T06:07:44;19.00;48.30
39777;DHT22;25453;48.162;14.510;2023-10-08T06:10:30;19.00;48.40
39777;DHT22;25453;48.162;14.510;2023-10-08T06:13:05;19.00;48.50
39777;DHT22;25453;48.162;14.510;2023-10-08T06:18:16;19.00;48.80
39777;DHT22;25453;48.162;14.510;2023-10-08T06:20:45;19.00;48.90
39777;DHT22;25453;48.162;14.510;2023-10-08T06:23:15;19.00;48.90
39777;DHT22;25453;48.162;14.510;2023-10-08T06:25:52;19.00;49.10
39777;DHT22;25453;48.162;14.510;2023-10-08T06:28:26;19.00;49.30
39777;DHT22;25453;48.162;14.510;2023-10-08T06:30:54;19.00;49.40
39777;DHT22;25453;48.162;14.510;2023-10-08T06:33:23;18.90;49.40
39777;DHT22;25453;48.162;14.510;2023-10-08T06:35:52;19.00;49.50
39777;DHT22;25453;48.162;14.510;2023-10-08T06:38:38;19.00;49.70
39777;DHT22;25453;48.162;14.510;2023-10-08T06:41:06;19.00;49.60
39777;DHT22;25453;48.162;14.510;2023-10-08T06:43:37;19.00;49.70
39777;DHT22;25453;48.162;14.510;2023-10-08T06:46:05;19.00;49.70
39777;DHT22;25453;48.162;14.510;2023-10-08T06:48:34;19.10;49.80
39777;DHT22;25453;48.162;14.510;2023-10-08T06:51:02;19.10;49.80
39777;DHT22;25453;48.162;14.510;2023-10-08T06:53:34;19.10;49.90
39777;DHT22;25453;48.162;14.510;2023-10-08T06:56:01;19.10;50.00
39777;DHT22;25453;48.162;14.510;2023-10-08T06:58:31;19.10;50.10
39777;DHT22;25453;48.162;14.510;2023-10-08T07:01:01;19.10;50.20
39777;DHT22;25453;48.162;14.510;2023-10-08T07:03:32;19.10;50.30
39777;DHT22;25453;48.162;14.510;2023-10-08T07:06:01;19.10;50.40
39777;DHT22;25453;48.162;14.510;2023-10-08T07:08:30;19.10;50.50
39777;DHT22;25453;48.162;14.510;2023-10-08T07:11:02;19.00;50.50
39777;DHT22;25453;48.162;14.510;2023-10-08T07:13:35;19.00;50.70
39777;DHT22;25453;48.162;14.510;2023-10-08T07:16:04;19.00;50.70
39777;DHT22;25453;48.162;14.510;2023-10-08T07:18:32;19.00;50.90
39777;DHT22;25453;48.162;14.510;2023-10-08T07:21:01;19.00;51.00
39777;DHT22;25453;48.162;14.510;2023-10-08T07:23:38;19.00;51.00
39777;DHT22;25453;48.162;14.510;2023-10-08T07:26:24;19.00;51.10
39777;DHT22;25453;48.162;14.510;2023-10-08T07:28:52;19.10;51.20
39777;DHT22;25453;48.162;14.510;2023-10-08T07:31:20;19.10;51.40
39777;DHT22;25453;48.162;14.510;2023-10-08T07:33:48;19.10;51.40
39777;DHT22;25453;48.162;14.510;2023-10-08T07:36:42;19.10;51.50
39777;DHT22;25453;48.162;14.510;2023-10-08T07:39:10;19.10;51.70
39777;DHT22;25453;48.162;14.510;2023-10-08T07:41:53;19.10;51.70
39777;DHT22;25453;48.162;14.510;2023-10-08T07:44:23;19.10;51.90
39777;DHT22;25453;48.162;14.510;2023-10-08T07:47:03;19.10;51.90
39777;DHT22;25453;48.162;14.510;2023-10-08T07:49:31;19.10;52.10
39777;DHT22;25453;48.162;14.510;2023-10-08T07:51:58;19.10;52.20
39777;DHT22;25453;48.162;14.510;2023-10-08T07:54:26;19.10;52.30
39777;DHT22;25453;48.162;14.510;2023-10-08T07:56:56;19.10;52.40
39777;DHT22;25453;48.162;14.510;2023-10-08T07:59:36;19.20;52.50
39777;DHT22;25453;48.162;14.510;2023-10-08T08:02:18;19.20;52.60
39777;DHT22;25453;48.162;14.510;2023-10-08T08:04:50;19.20;52.60
39777;DHT22;25453;48.162;14.510;2023-10-08T08:07:18;19.20;52.70
39777;DHT22;25453;48.162;14.510;2023-10-08T08:09:46;19.20;52.70
39777;DHT22;25453;48.162;14.510;2023-10-08T08:12:26;19.20;52.80
39777;DHT22;25453;48.162;14.510;2023-10-08T08:14:55;19.30;52.90
39777;DHT22;25453;48.162;14.510;2023-10-08T08:17:22;19.30;52.90
39777;DHT22;25453;48.162;14.510;2023-10-08T08:19:50;19.30;53.00
39777;DHT22;25453;48.162;14.510;2023-10-08T08:22:19;19.30;53.20
39777;DHT22;25453;48.162;14.510;2023-10-08T08:24:50;19.30;53.20
39777;DHT22;25453;48.162;14.510;2023-10-08T08:27:24;19.30;53.30
39777;DHT22;25453;48.162;14.510;2023-10-08T08:30:01;19.30;53.50
39777;DHT22;25453;48.162;14.510;2023-10-08T08:32:37;19.40;54.10
39777;DHT22;25453;48.162;14.510;2023-10-08T08:35:10;19.40;53.90
39777;DHT22;25453;48.162;14.510;2023-10-08T08:37:38;19.40;54.00
39777;DHT22;25453;48.162;14.510;2023-10-08T08:40:06;19.40;54.00
39777;DHT22;25453;48.162;14.510;2023-10-08T08:42:44;19.40;54.10
39777;DHT22;25453;48.162;14.510;2023-10-08T08:45:13;19.40;54.10
39777;DHT22;25453;48.162;14.510;2023-10-08T08:47:42;19.40;54.20
39777;DHT22;25453;48.162;14.510;2023-10-08T08:50:09;19.40;54.20
39777;DHT22;25453;48.162;14.510;2023-10-08T08:52:37;19.40;54.30
39777;DHT22;25453;48.162;14.510;2023-10-08T08:55:05;19.40;54.30
39777;DHT22;25453;48.162;14.510;2023-10-08T08:57:36;19.40;54.40
39777;DHT22;25453;48.162;14.510;2023-10-08T09:00:06;19.40;54.50
39777;DHT22;25453;48.162;14.510;2023-10-08T09:02:38;19.40;54.60
39777;DHT22;25453;48.162;14.510;2023-10-08T09:05:05;19.40;54.70
39777;DHT22;25453;48.162;14.510;2023-10-08T09:07:56;19.40;54.80
39777;DHT22;25453;48.162;14.510;2023-10-08T09:10:24;19.40;54.90
39777;DHT22;25453;48.162;14.510;2023-10-08T09:12:55;19.40;55.10
39777;DHT22;25453;48.162;14.510;2023-10-08T09:15:26;19.40;55.20
39777;DHT22;25453;48.162;14.510;2023-10-08T09:17:54;19.40;55.20
39777;DHT22;25453;48.162;14.510;2023-10-08T09:20:22;19.40;55.30
39777;DHT22;25453;48.162;14.510;2023-10-08T09:25:54;19.40;55.50
39777;DHT22;25453;48.162;14.510;2023-10-08T09:28:30;19.40;55.60
39777;DHT22;25453;48.162;14.510;2023-10-08T09:30:59;19.40;55.60
39777;DHT22;25453;48.162;14.510;2023-10-08T09:33:26;19.40;55.70
39777;DHT22;25453;48.162;14.510;2023-10-08T09:35:55;19.40;55.80
39777;DHT22;25453;48.162;14.510;2023-10-08T09:38:24;19.40;55.80
39777;DHT22;25453;48.162;14.510;2023-10-08T09:40:52;19.40;56.00
39777;DHT22;25453;48.162;14.510;2023-10-08T09:43:20;19.40;56.10
39777;DHT22;25453;48.162;14.510;2023-10-08T09:45:47;19.40;56.20
39777;DHT22;25453;48.162;14.510;2023-10-08T09:48:18;19.40;56.20
39777;DHT22;25453;48.162;14.510;2023-10-08T09:50:47;19.40;56.30
39777;DHT22;25453;48.162;14.510;2023-10-08T09:53:14;19.40;56.60
39777;DHT22;25453;48.162;14.510;2023-10-08T09:55:56;19.40;56.60
39777;DHT22;25453;48.162;14.510;2023-10-08T09:58:23;19.50;56.80
39777;DHT22;25453;48.162;14.510;2023-10-08T10:00:52;19.50;56.80
39777;DHT22;25453;48.162;14.510;2023-10-08T10:03:23;19.50;56.80
39777;DHT22;25453;48.162;14.510;2023-10-08T10:05:52;19.50;56.80
39777;DHT22;25453;48.162;14.510;2023-10-08T10:08:27;19.50;56.90
39777;DHT22;25453;48.162;14.510;2023-10-08T10:11:00;19.50;56.90
39777;DHT22;25453;48.162;14.510;2023-10-08T10:13:27;19.50;56.90
39777;DHT22;25453;48.162;14.510;2023-10-08T10:15:56;19.50;56.80
39777;DHT22;25453;48.162;14.510;2023-10-08T10:20:59;19.50;56.90
39777;DHT22;25453;48.162;14.510;2023-10-08T10:23:40;19.50;57.00
39777;DHT22;25453;48.162;14.510;2023-10-08T10:31:42;19.50;57.10
39777;DHT22;25453;48.162;14.510;2023-10-08T10:34:16;19.50;57.10
39777;DHT22;25453;48.162;14.510;2023-10-08T10:36:44;19.50;57.10
39777;DHT22;25453;48.162;14.510;2023-10-08T10:39:18;19.40;57.10
39777;DHT22;25453;48.162;14.510;2023-10-08T10:41:55;19.40;57.20
39777;DHT22;25453;48.162;14.510;2023-10-08T10:44:29;19.40;57.20
39777;DHT22;25453;48.162;14.510;2023-10-08T10:46:57;19.40;57.30
39777;DHT22;25453;48.162;14.510;2023-10-08T10:49:51;19.50;57.30
39777;DHT22;25453;48.162;14.510;2023-10-08T10:52:33;19.50;57.20
39777;DHT22;25453;48.162;14.510;2023-10-08T10:55:19;19.40;57.30
39777;DHT22;25453;48.162;14.510;2023-10-08T10:57:58;19.40;57.50
39777;DHT22;25453;48.162;14.510;2023-10-08T11:00:31;19.40;57.80
39777;DHT22;25453;48.162;14.510;2023-10-08T11:02:59;19.40;58.00
39777;DHT22;25453;48.162;14.510;2023-10-08T11:05:30;19.40;58.30
39777;DHT22;25453;48.162;14.510;2023-10-08T11:07:58;19.40;58.50
39777;DHT22;25453;48.162;14.510;2023-10-08T11:10:32;19.40;58.70
39777;DHT22;25453;48.162;14.510;2023-10-08T11:12:59;19.40;58.80
39777;DHT22;25453;48.162;14.510;2023-10-08T11:15:28;19.40;58.90
39777;DHT22;25453;48.162;14.510;2023-10-08T11:18:10;19.30;58.90
39777;DHT22;25453;48.162;14.510;2023-10-08T11:20:41;19.40;59.00
39777;DHT22;25453;48.162;14.510;2023-10-08T11:26:01;19.40;59.20
39777;DHT22;25453;48.162;14.510;2023-10-08T11:28:36;19.40;59.20
39777;DHT22;25453;48.162;14.510;2023-10-08T11:31:12;19.40;59.30
39777;DHT22;25453;48.162;14.510;2023-10-08T11:33:41;19.40;59.30
39777;DHT22;25453;48.162;14.510;2023-10-08T11:36:09;19.40;59.40
39777;DHT22;25453;48.162;14.510;2023-10-08T11:38:45;19.50;59.30
39777;DHT22;25453;48.162;14.510;2023-10-08T11:41:17;19.50;59.30
39777;DHT22;25453;48.162;14.510;2023-10-08T11:43:51;19.50;59.40
39777;DHT22;25453;48.162;14.510;2023-10-08T11:46:27;19.50;59.40
39777;DHT22;25453;48.162;14.510;2023-10-08T11:48:59;19.60;59.40
39777;DHT22;25453;48.162;14.510;2023-10-08T11:51:31;19.60;59.50
39777;DHT22;25453;48.162;14.510;2023-10-08T11:53:59;19.60;59.50
39777;DHT22;25453;48.162;14.510;2023-10-08T11:56:30;19.60;59.50
39777;DHT22;25453;48.162;14.510;2023-10-08T11:58:57;19.60;59.50
39777;DHT22;25453;48.162;14.510;2023-10-08T12:01:24;19.60;59.50
39777;DHT22;25453;48.162;14.510;2023-10-08T12:03:51;19.70;59.40
39777;DHT22;25453;48.162;14.510;2023-10-08T12:06:19;19.70;59.40
39777;DHT22;25453;48.162;14.510;2023-10-08T12:08:47;19.70;59.30
39777;DHT22;25453;48.162;14.510;2023-10-08T12:11:14;19.70;59.30
39777;DHT22;25453;48.162;14.510;2023-10-08T12:13:41;19.70;59.30
39777;DHT22;25453;48.162;14.510;2023-10-08T12:16:12;19.70;59.20
39777;DHT22;25453;48.162;14.510;2023-10-08T12:18:45;19.70;59.10
39777;DHT22;25453;48.162;14.510;2023-10-08T12:21:15;19.70;59.10
39777;DHT22;25453;48.162;14.510;2023-10-08T12:23:42;19.70;59.10
39777;DHT22;25453;48.162;14.510;2023-10-08T12:26:12;19.80;59.00
39777;DHT22;25453;48.162;14.510;2023-10-08T12:28:42;19.80;58.90
39777;DHT22;25453;48.162;14.510;2023-10-08T12:31:12;19.80;58.90
39777;DHT22;25453;48.162;14.510;2023-10-08T12:33:39;19.80;59.00
39777;DHT22;25453;48.162;14.510;2023-10-08T12:36:07;19.80;59.00
39777;DHT22;25453;48.162;14.510;2023-10-08T12:38:40;19.90;59.00
39777;DHT22;25453;48.162;14.510;2023-10-08T12:41:10;19.90;59.00
39777;DHT22;25453;48.162;14.510;2023-10-08T12:43:41;19.90;59.10
39777;DHT22;25453;48.162;14.510;2023-10-08T12:46:09;20.00;59.10
39777;DHT22;25453;48.162;14.510;2023-10-08T12:48:45;20.00;59.10
39777;DHT22;25453;48.162;14.510;2023-10-08T12:51:14;20.10;59.10
39777;DHT22;25453;48.162;14.510;2023-10-08T12:53:41;20.10;59.00
39777;DHT22;25453;48.162;14.510;2023-10-08T12:56:17;20.10;58.90
39777;DHT22;25453;48.162;14.510;2023-10-08T12:58:48;20.10;58.90
39777;DHT22;25453;48.162;14.510;2023-10-08T13:01:15;20.10;58.80
39777;DHT22;25453;48.162;14.510;2023-10-08T13:03:45;20.10;58.80
39777;DHT22;25453;48.162;14.510;2023-10-08T13:06:16;20.00;58.80
39777;DHT22;25453;48.162;14.510;2023-10-08T13:08:57;20.00;58.80
39777;DHT22;25453;48.162;14.510;2023-10-08T13:11:26;20.00;58.80
39777;DHT22;25453;48.162;14.510;2023-10-08T13:13:56;20.00;58.90
39777;DHT22;25453;48.162;14.510;2023-10-08T13:16:24;20.00;59.00
39777;DHT22;25453;48.162;14.510;2023-10-08T13:18:52;20.00;59.00
39777;DHT22;25453;48.162;14.510;2023-10-08T13:21:23;20.00;59.00
39777;DHT22;25453;48.162;14.510;2023-10-08T13:23:52;20.00;59.00
39777;DHT22;25453;48.162;14.510;2023-10-08T13:26:19;20.00;59.00
39777;DHT22;25453;48.162;14.510;2023-10-08T13:28:49;20.00;58.90
39777;DHT22;25453;48.162;14.510;2023-10-08T13:31:16;20.00;59.00
39777;DHT22;25453;48.162;14.510;2023-10-08T13:33:46;20.00;59.00
39777;DHT22;25453;48.162;14.510;2023-10-08T13:36:19;20.00;59.10
39777;DHT22;25453;48.162;14.510;2023-10-08T13:38:46;19.90;59.10
39777;DHT22;25453;48.162;14.510;2023-10-08T13:41:14;19.90;59.10
39777;DHT22;25453;48.162;14.510;2023-10-08T13:43:50;19.80;59.10
39777;DHT22;25453;48.162;14.510;2023-10-08T13:46:26;19.70;59.30
39777;DHT22;25453;48.162;14.510;2023-10-08T13:48:53;19.60;59.40
39777;DHT22;25453;48.162;14.510;2023-10-08T13:51:21;19.60;59.40
39777;DHT22;25453;48.162;14.510;2023-10-08T13:53:53;19.50;59.50
39777;DHT22;25453;48.162;14.510;2023-10-08T13:56:20;19.50;59.40
39777;DHT22;25453;48.162;14.510;2023-10-08T13:58:52;19.40;59.40
39777;DHT22;25453;48.162;14.510;2023-10-08T14:01:23;19.30;59.40
39777;DHT22;25453;48.162;14.510;2023-10-08T14:03:52;19.30;59.50
39777;DHT22;25453;48.162;14.510;2023-10-08T14:06:21;19.20;59.50
39777;DHT22;25453;48.162;14.510;2023-10-08T14:08:48;19.20;59.40
39777;DHT22;25453;48.162;14.510;2023-10-08T14:11:19;19.10;59.30
39777;DHT22;25453;48.162;14.510;2023-10-08T14:13:46;19.00;59.20
39777;DHT22;25453;48.162;14.510;2023-10-08T14:16:14;18.90;59.20
39777;DHT22;25453;48.162;14.510;2023-10-08T14:18:44;18.80;59.20
39777;DHT22;25453;48.162;14.510;2023-10-08T14:21:17;18.80;59.20
39777;DHT22;25453;48.162;14.510;2023-10-08T14:23:45;18.70;59.40
39777;DHT22;25453;48.162;14.510;2023-10-08T14:26:17;18.70;59.20
39777;DHT22;25453;48.162;14.510;2023-10-08T14:28:48;18.60;59.20
39777;DHT22;25453;48.162;14.510;2023-10-08T14:31:25;18.60;59.20
39777;DHT22;25453;48.162;14.510;2023-10-08T14:33:53;18.50;59.30
39777;DHT22;25453;48.162;14.510;2023-10-08T14:36:32;18.50;59.30
39777;DHT22;25453;48.162;14.510;2023-10-08T14:39:18;18.40;59.30
39777;DHT22;25453;48.162;14.510;2023-10-08T14:42:04;18.40;59.30
39777;DHT22;25453;48.162;14.510;2023-10-08T14:44:49;18.40;59.20
39777;DHT22;25453;48.162;14.510;2023-10-08T14:47:17;18.40;59.20
39777;DHT22;25453;48.162;14.510;2023-10-08T14:49:45;18.30;59.20
39777;DHT22;25453;48.162;14.510;2023-10-08T14:52:12;18.30;59.20
39777;DHT22;25453;48.162;14.510;2023-10-08T14:54:40;18.30;59.10
39777;DHT22;25453;48.162;14.510;2023-10-08T14:57:07;18.30;59.20
39777;DHT22;25453;48.162;14.510;2023-10-08T14:59:34;18.20;59.20
39777;DHT22;25453;48.162;14.510;2023-10-08T15:02:02;18.20;59.10
39777;DHT22;25453;48.162;14.510;2023-10-08T15:04:30;18.20;59.20
39777;DHT22;25453;48.162;14.510;2023-10-08T15:06:59;18.20;59.20
39777;DHT22;25453;48.162;14.510;2023-10-08T15:09:26;18.20;59.20
39777;DHT22;25453;48.162;14.510;2023-10-08T15:11:53;18.20;59.30
39777;DHT22;25453;48.162;14.510;2023-10-08T15:14:21;18.20;59.20
39777;DHT22;25453;48.162;14.510;2023-10-08T15:16:50;18.10;59.20
39777;DHT22;25453;48.162;14.510;2023-10-08T15:19:20;18.10;59.30
39777;DHT22;25453;48.162;14.510;2023-10-08T15:21:48;18.10;59.30
39777;DHT22;25453;48.162;14.510;2023-10-08T15:24:17;18.10;59.20
39777;DHT22;25453;48.162;14.510;2023-10-08T15:26:45;18.10;59.20
39777;DHT22;25453;48.162;14.510;2023-10-08T15:29:14;18.10;59.20
39777;DHT22;25453;48.162;14.510;2023-10-08T15:31:42;18.00;59.20
39777;DHT22;25453;48.162;14.510;2023-10-08T15:34:09;18.00;59.30
39777;DHT22;25453;48.162;14.510;2023-10-08T15:36:58;18.00;59.30
39777;DHT22;25453;48.162;14.510;2023-10-08T15:39:25;18.00;59.30
39777;DHT22;25453;48.162;14.510;2023-10-08T15:41:55;17.90;59.30
39777;DHT22;25453;48.162;14.510;2023-10-08T15:44:23;17.90;59.30
39777;DHT22;25453;48.162;14.510;2023-10-08T15:46:51;17.90;59.40
39777;DHT22;25453;48.162;14.510;2023-10-08T15:49:18;17.90;59.40
39777;DHT22;25453;48.162;14.510;2023-10-08T15:51:48;17.90;59.40
39777;DHT22;25453;48.162;14.510;2023-10-08T15:54:15;17.90;59.40
39777;DHT22;25453;48.162;14.510;2023-10-08T15:56:47;17.90;59.40
39777;DHT22;25453;48.162;14.510;2023-10-08T15:59:15;17.90;59.40
39777;DHT22;25453;48.162;14.510;2023-10-08T16:01:42;17.80;59.40
39777;DHT22;25453;48.162;14.510;2023-10-08T16:04:13;17.80;59.50